sensor_id;sensor_type;location;lat;lon;timestamp;temperature;humidity
22676;DHT22;12521;43.310;21.876;2023-03-01T00:03:13;5.3;96.0
22676;DHT22;12521;43.310;21.876;2023-03-01T00:07:52;5.3;96.0
22676;DHT22;12521;43.310;21.876;2023-03-01T00:12:31;5.3;96.0
22676;DHT22;12521;43.310;21.876;2023-03-01T00:17:08;5.3;96.0
22676;DHT22;12521;43.310;21.876;2023-03-01T00:21:46;5.3;96.0
22676;DHT22;12521;43.310;21.876;2023-03-01T00:26:26;5.3;96.0
22676;DHT22;12521;43.310;21.876;2023-03-01T00:31:06;5.4;96.0
22676;DHT22;12521;43.310;21.876;2023-03-01T00:35:49;5.4;96.0
22676;DHT22;12521;43.310;21.876;2023-03-01T00:40:28;5.4;96.0
22676;DHT22;12521;43.310;21.876;2023-03-01T00:45:10;5.4;96.0
22676;DHT22;12521;43.310;21.876;2023-03-01T00:49:48;5.4;96.0
22676;DHT22;12521;43.310;21.876;2023-03-01T00:54:24;5.4;96.0
22676;DHT22;12521;43.310;21.876;2023-03-01T00:59:02;5.4;96.0
22676;DHT22;12521;43.310;21.876;2023-03-01T01:03:39;5.4;96.0
22676;DHT22;12521;43.310;21.876;2023-03-01T01:08:15;5.4;96.0
22676;DHT22;12521;43.310;21.876;2023-03-01T01:12:52;5.4;96.0
22676;DHT22;12521;43.310;21.876;2023-03-01T01:17:29;5.4;96.0
22676;DHT22;12521;43.310;21.876;2023-03-01T01:22:06;5.4;96.0
22676;DHT22;12521;43.310;21.876;2023-03-01T01:26:45;5.4;96.0
22676;DHT22;12521;43.310;21.876;2023-03-01T01:31:26;5.4;96.0
22676;DHT22;12521;43.310;21.876;2023-03-01T01:36:07;5.4;96.0
22676;DHT22;12521;43.310;21.876;2023-03-01T01:40:46;5.4;96.0
22676;DHT22;12521;43.310;21.876;2023-03-01T01:45:33;5.4;96.0
22676;DHT22;12521;43.310;21.876;2023-03-01T01:50:19;5.4;96.0
22676;DHT22;12521;43.310;21.876;2023-03-01T01:55:09;5.4;96.0
22676;DHT22;12521;43.310;21.876;2023-03-01T02:00:02;5.4;96.0
22676;DHT22;12521;43.310;21.876;2023-03-01T02:05:00;5.4;96.0
22676;DHT22;12521;43.310;21.876;2023-03-01T02:09:52;5.4;96.0
22676;DHT22;12521;43.310;21.876;2023-03-01T02:14:29;5.4;96.0
22676;DHT22;12521;43.310;21.876;2023-03-01T02:19:28;5.4;96.0
22676;DHT22;12521;43.310;21.876;2023-03-01T02:24:59;5.4;96.0
22676;DHT22;12521;43.310;21.876;2023-03-01T02:29:58;5.4;96.0
22676;DHT22;12521;43.310;21.876;2023-03-01T02:34:35;5.4;96.0
22676;DHT22;12521;43.310;21.876;2023-03-01T02:39:22;5.4;96.0
22676;DHT22;12521;43.310;21.876;2023-03-01T02:44:05;5.4;96.0
22676;DHT22;12521;43.310;21.876;2023-03-01T02:48:49;5.4;96.0
22676;DHT22;12521;43.310;21.876;2023-03-01T02:53:56;5.4;96.0
22676;DHT22;12521;43.310;21.876;2023-03-01T02:58:47;5.4;96.0
22676;DHT22;12521;43.310;21.876;2023-03-01T03:03:25;5.4;96.0
22676;DHT22;12521;43.310;21.876;2023-03-01T03:08:04;5.4;96.0
22676;DHT22;12521;43.310;21.876;2023-03-01T03:12:42;5.4;96.0
22676;DHT22;12521;43.310;21.876;2023-03-01T03:17:19;5.4;96.0
22676;DHT22;12521;43.310;21.876;2023-03-01T03:21:56;5.4;96.0
22676;DHT22;12521;43.310;21.876;2023-03-01T03:26:33;5.4;96.0
22676;DHT22;12521;43.310;21.876;2023-03-01T03:31:10;5.4;96.0
22676;DHT22;12521;43.310;21.876;2023-03-01T03:35:50;5.4;96.0
22676;DHT22;12521;43.310;21.876;2023-03-01T03:40:35;5.4;96.0
22676;DHT22;12521;43.310;21.876;2023-03-01T03:45:18;5.4;96.0
22676;DHT22;12521;43.310;21.876;2023-03-01T03:49:55;5.4;96.0
22676;DHT22;12521;43.310;21.876;2023-03-01T03:54:32;5.4;96.0
22676;DHT22;12521;43.310;21.876;2023-03-01T03:59:09;5.4;96.0
22676;DHT22;12521;43.310;21.876;2023-03-01T04:03:46;5.5;96.0
22676;DHT22;12521;43.310;21.876;2023-03-01T04:08:24;5.5;96.0
22676;DHT22;12521;43.310;21.876;2023-03-01T04:13:01;5.5;96.0
22676;DHT22;12521;43.310;21.876;2023-03-01T04:17:39;5.5;96.0
22676;DHT22;12521;43.310;21.876;2023-03-01T04:22:16;5.5;96.0
22676;DHT22;12521;43.310;21.876;2023-03-01T04:26:52;5.5;96.0
22676;DHT22;12521;43.310;21.876;2023-03-01T04:31:29;5.5;96.0
22676;DHT22;12521;43.310;21.876;2023-03-01T04:36:07;5.5;96.0
22676;DHT22;12521;43.310;21.876;2023-03-01T04:40:48;5.5;96.0
22676;DHT22;12521;43.310;21.876;2023-03-01T04:45:25;5.5;96.0
22676;DHT22;12521;43.310;21.876;2023-03-01T04:50:01;5.5;96.0
22676;DHT22;12521;43.310;21.876;2023-03-01T04:54:38;5.5;96.0
22676;DHT22;12521;43.310;21.876;2023-03-01T04:59:14;5.5;96.0
22676;DHT22;12521;43.310;21.876;2023-03-01T05:03:52;5.5;96.0
22676;DHT22;12521;43.310;21.876;2023-03-01T05:08:28;5.5;96.0
22676;DHT22;12521;43.310;21.876;2023-03-01T05:13:05;5.5;96.0
22676;DHT22;12521;43.310;21.876;2023-03-01T05:17:42;5.5;96.0
22676;DHT22;12521;43.310;21.876;2023-03-01T05:22:18;5.5;96.0
22676;DHT22;12521;43.310;21.876;2023-03-01T05:26:54;5.5;96.0
22676;DHT22;12521;43.310;21.876;2023-03-01T05:31:31;5.5;96.0
22676;DHT22;12521;43.310;21.876;2023-03-01T05:36:10;5.5;96.0
22676;DHT22;12521;43.310;21.876;2023-03-01T05:40:49;5.5;96.0
22676;DHT22;12521;43.310;21.876;2023-03-01T05:45:27;5.5;96.0
22676;DHT22;12521;43.310;21.876;2023-03-01T05:50:05;5.5;96.0
22676;DHT22;12521;43.310;21.876;2023-03-01T05:54:42;5.6;96.0
22676;DHT22;12521;43.310;21.876;2023-03-01T05:59:18;5.6;96.0
22676;DHT22;12521;43.310;21.876;2023-03-01T06:03:56;5.6;96.0
22676;DHT22;12521;43.310;21.876;2023-03-01T06:08:33;5.6;96.0
22676;DHT22;12521;43.310;21.876;2023-03-01T06:13:10;5.7;96.0
22676;DHT22;12521;43.310;21.876;2023-03-01T06:17:47;5.7;96.0
22676;DHT22;12521;43.310;21.876;2023-03-01T06:22:25;5.8;96.0
22676;DHT22;12521;43.310;21.876;2023-03-01T06:27:03;5.8;96.0
22676;DHT22;12521;43.310;21.876;2023-03-01T06:31:40;5.9;96.0
22676;DHT22;12521;43.310;21.876;2023-03-01T06:36:17;5.9;96.0
22676;DHT22;12521;43.310;21.876;2023-03-01T06:40:55;5.9;96.0
22676;DHT22;12521;43.310;21.876;2023-03-01T06:45:32;6.1;96.0
22676;DHT22;12521;43.310;21.876;2023-03-01T06:50:12;6.1;96.0
22676;DHT22;12521;43.310;21.876;2023-03-01T06:54:49;6.2;96.0
22676;DHT22;12521;43.310;21.876;2023-03-01T06:59:26;6.2;96.0
22676;DHT22;12521;43.310;21.876;2023-03-01T07:04:03;6.4;96.0
22676;DHT22;12521;43.310;21.876;2023-03-01T07:08:39;6.4;96.0
22676;DHT22;12521;43.310;21.876;2023-03-01T07:13:16;6.4;96.0
22676;DHT22;12521;43.310;21.876;2023-03-01T07:17:52;6.4;96.0
22676;DHT22;12521;43.310;21.876;2023-03-01T07:22:29;6.5;96.0
22676;DHT22;12521;43.310;21.876;2023-03-01T07:27:05;6.5;96.0
22676;DHT22;12521;43.310;21.876;2023-03-01T07:31:41;6.6;96.0
22676;DHT22;12521;43.310;21.876;2023-03-01T07:36:18;6.6;96.0
22676;DHT22;12521;43.310;21.876;2023-03-01T07:41:01;6.6;96.0
22676;DHT22;12521;43.310;21.876;2023-03-01T07:45:39;6.6;96.0
22676;DHT22;12521;43.310;21.876;2023-03-01T07:50:16;6.6;96.0
22676;DHT22;12521;43.310;21.876;2023-03-01T07:54:53;6.7;96.0
22676;DHT22;12521;43.310;21.876;2023-03-01T07:59:29;6.7;96.0
22676;DHT22;12521;43.310;21.876;2023-03-01T08:04:08;6.8;96.0
22676;DHT22;12521;43.310;21.876;2023-03-01T08:08:46;6.8;96.0
22676;DHT22;12521;43.310;21.876;2023-03-01T08:13:23;7.0;96.0
22676;DHT22;12521;43.310;21.876;2023-03-01T08:18:00;7.0;96.0
22676;DHT22;12521;43.310;21.876;2023-03-01T08:22:36;7.1;96.0
22676;DHT22;12521;43.310;21.876;2023-03-01T08:27:16;7.1;96.0
22676;DHT22;12521;43.310;21.876;2023-03-01T08:31:53;7.4;96.0
22676;DHT22;12521;43.310;21.876;2023-03-01T08:36:37;7.4;96.0
22676;DHT22;12521;43.310;21.876;2023-03-01T08:41:18;7.7;96.0
22676;DHT22;12521;43.310;21.876;2023-03-01T08:45:56;7.7;96.0
22676;DHT22;12521;43.310;21.876;2023-03-01T08:50:32;7.7;96.0
22676;DHT22;12521;43.310;21.876;2023-03-01T08:55:10;8.1;96.0
22676;DHT22;12521;43.310;21.876;2023-03-01T08:59:46;8.1;96.0
22676;DHT22;12521;43.310;21.876;2023-03-01T09:04:23;8.5;96.0
22676;DHT22;12521;43.310;21.876;2023-03-01T09:09:05;8.5;96.0
22676;DHT22;12521;43.310;21.876;2023-03-01T09:13:52;8.7;96.0
22676;DHT22;12521;43.310;21.876;2023-03-01T09:18:29;8.7;96.0
22676;DHT22;12521;43.310;21.876;2023-03-01T09:23:07;8.9;96.0
22676;DHT22;12521;43.310;21.876;2023-03-01T09:27:44;8.9;96.0
22676;DHT22;12521;43.310;21.876;2023-03-01T09:32:20;9.0;96.0
22676;DHT22;12521;43.310;21.876;2023-03-01T09:36:58;9.0;96.0
22676;DHT22;12521;43.310;21.876;2023-03-01T09:41:54;9.1;96.0
22676;DHT22;12521;43.310;21.876;2023-03-01T09:46:44;9.1;96.0
22676;DHT22;12521;43.310;21.876;2023-03-01T09:51:34;9.3;96.0
22676;DHT22;12521;43.310;21.876;2023-03-01T09:56:30;9.3;96.0
22676;DHT22;12521;43.310;21.876;2023-03-01T10:01:34;9.5;96.0
22676;DHT22;12521;43.310;21.876;2023-03-01T10:06:22;9.5;96.0
22676;DHT22;12521;43.310;21.876;2023-03-01T10:11:00;9.5;96.0
22676;DHT22;12521;43.310;21.876;2023-03-01T10:15:50;9.6;96.0
22676;DHT22;12521;43.310;21.876;2023-03-01T10:20:46;9.6;96.0
22676;DHT22;12521;43.310;21.876;2023-03-01T10:26:07;9.8;96.0
22676;DHT22;12521;43.310;21.876;2023-03-01T10:30:46;9.8;96.0
22676;DHT22;12521;43.310;21.876;2023-03-01T10:35:28;9.9;96.0
22676;DHT22;12521;43.310;21.876;2023-03-01T10:40:10;9.9;96.0
22676;DHT22;12521;43.310;21.876;2023-03-01T10:44:49;9.9;96.0
22676;DHT22;12521;43.310;21.876;2023-03-01T10:49:25;9.9;96.0
22676;DHT22;12521;43.310;21.876;2023-03-01T10:54:06;9.9;96.0
22676;DHT22;12521;43.310;21.876;2023-03-01T10:59:03;9.9;96.0
22676;DHT22;12521;43.310;21.876;2023-03-01T11:03:39;9.9;96.0
22676;DHT22;12521;43.310;21.876;2023-03-01T11:08:40;9.9;96.0
22676;DHT22;12521;43.310;21.876;2023-03-01T11:13:22;9.9;96.0
22676;DHT22;12521;43.310;21.876;2023-03-01T11:17:58;9.9;96.0
22676;DHT22;12521;43.310;21.876;2023-03-01T11:22:35;9.8;96.0
22676;DHT22;12521;43.310;21.876;2023-03-01T11:27:26;9.8;96.0
22676;DHT22;12521;43.310;21.876;2023-03-01T11:32:26;10.0;96.0
22676;DHT22;12521;43.310;21.876;2023-03-01T11:37:40;10.0;96.0
22676;DHT22;12521;43.310;21.876;2023-03-01T11:43:16;10.1;96.0
22676;DHT22;12521;43.310;21.876;2023-03-01T11:48:58;10.1;96.0
22676;DHT22;12521;43.310;21.876;2023-03-01T11:54:44;10.4;96.0
22676;DHT22;12521;43.310;21.876;2023-03-01T12:00:19;10.4;96.0
22676;DHT22;12521;43.310;21.876;2023-03-01T12:06:57;10.6;96.0
22676;DHT22;12521;43.310;21.876;2023-03-01T12:12:15;10.4;96.0
22676;DHT22;12521;43.310;21.876;2023-03-01T12:17:31;10.4;96.0
22676;DHT22;12521;43.310;21.876;2023-03-01T12:22:32;10.2;96.0
22676;DHT22;12521;43.310;21.876;2023-03-01T12:28:48;10.2;96.0
22676;DHT22;12521;43.310;21.876;2023-03-01T12:33:59;9.9;96.0
22676;DHT22;12521;43.310;21.876;2023-03-01T12:39:34;9.9;96.0
22676;DHT22;12521;43.310;21.876;2023-03-01T12:45:30;9.6;96.0
22676;DHT22;12521;43.310;21.876;2023-03-01T12:50:46;9.6;96.0
22676;DHT22;12521;43.310;21.876;2023-03-01T12:55:39;9.5;96.0
22676;DHT22;12521;43.310;21.876;2023-03-01T13:00:38;9.5;96.0
22676;DHT22;12521;43.310;21.876;2023-03-01T13:06:00;9.4;96.0
22676;DHT22;12521;43.310;21.876;2023-03-01T13:11:03;9.4;96.0
22676;DHT22;12521;43.310;21.876;2023-03-01T13:16:42;9.4;96.0
22676;DHT22;12521;43.310;21.876;2023-03-01T13:21:31;9.3;96.0
22676;DHT22;12521;43.310;21.876;2023-03-01T13:26:16;9.3;96.0
22676;DHT22;12521;43.310;21.876;2023-03-01T13:30:54;9.3;96.0
22676;DHT22;12521;43.310;21.876;2023-03-01T13:35:46;9.3;96.0
22676;DHT22;12521;43.310;21.876;2023-03-01T13:42:44;9.3;96.0
22676;DHT22;12521;43.310;21.876;2023-03-01T13:47:24;9.3;96.0
22676;DHT22;12521;43.310;21.876;2023-03-01T13:52:27;9.2;96.0
22676;DHT22;12521;43.310;21.876;2023-03-01T13:57:36;9.2;96.0
22676;DHT22;12521;43.310;21.876;2023-03-01T14:02:16;9.2;96.0
22676;DHT22;12521;43.310;21.876;2023-03-01T14:07:12;9.2;96.0
22676;DHT22;12521;43.310;21.876;2023-03-01T14:12:35;9.1;96.0
22676;DHT22;12521;43.310;21.876;2023-03-01T14:17:55;9.1;96.0
22676;DHT22;12521;43.310;21.876;2023-03-01T14:22:44;9.0;96.0
22676;DHT22;12521;43.310;21.876;2023-03-01T14:27:37;9.0;96.0
22676;DHT22;12521;43.310;21.876;2023-03-01T14:32:28;9.0;96.0
22676;DHT22;12521;43.310;21.876;2023-03-01T14:37:23;9.0;96.0
22676;DHT22;12521;43.310;21.876;2023-03-01T14:42:06;9.0;96.0
22676;DHT22;12521;43.310;21.876;2023-03-01T14:46:46;9.0;96.0
22676;DHT22;12521;43.310;21.876;2023-03-01T14:51:28;9.0;96.0
22676;DHT22;12521;43.310;21.876;2023-03-01T14:56:13;9.0;96.0
22676;DHT22;12521;43.310;21.876;2023-03-01T15:00:59;9.0;96.0
22676;DHT22;12521;43.310;21.876;2023-03-01T15:05:39;9.0;96.0
22676;DHT22;12521;43.310;21.876;2023-03-01T15:10:27;9.0;96.0
22676;DHT22;12521;43.310;21.876;2023-03-01T15:15:36;9.0;96.0
22676;DHT22;12521;43.310;21.876;2023-03-01T15:20:20;9.0;96.0
22676;DHT22;12521;43.310;21.876;2023-03-01T15:25:01;8.9;96.0
22676;DHT22;12521;43.310;21.876;2023-03-01T15:29:38;8.9;96.0
22676;DHT22;12521;43.310;21.876;2023-03-01T15:34:28;8.9;96.0
22676;DHT22;12521;43.310;21.876;2023-03-01T15:39:38;8.9;96.0
22676;DHT22;12521;43.310;21.876;2023-03-01T15:44:32;8.8;96.0
22676;DHT22;12521;43.310;21.876;2023-03-01T15:49:39;8.8;96.0
22676;DHT22;12521;43.310;21.876;2023-03-01T15:54:26;8.8;96.0
22676;DHT22;12521;43.310;21.876;2023-03-01T15:59:04;8.8;96.0
22676;DHT22;12521;43.310;21.876;2023-03-01T16:03:41;8.7;96.0
22676;DHT22;12521;43.310;21.876;2023-03-01T16:08:18;8.7;96.0
22676;DHT22;12521;43.310;21.876;2023-03-01T16:12:55;8.6;96.0
22676;DHT22;12521;43.310;21.876;2023-03-01T16:17:31;8.6;96.0
22676;DHT22;12521;43.310;21.876;2023-03-01T16:22:10;8.4;96.0
22676;DHT22;12521;43.310;21.876;2023-03-01T16:26:47;8.4;96.0
22676;DHT22;12521;43.310;21.876;2023-03-01T16:31:25;8.4;96.0
22676;DHT22;12521;43.310;21.876;2023-03-01T16:36:11;8.3;96.0
22676;DHT22;12521;43.310;21.876;2023-03-01T16:40:52;8.3;96.0
22676;DHT22;12521;43.310;21.876;2023-03-01T16:45:35;8.2;96.0
22676;DHT22;12521;43.310;21.876;2023-03-01T16:50:12;8.2;96.0
22676;DHT22;12521;43.310;21.876;2023-03-01T16:54:49;8.1;96.0
22676;DHT22;12521;43.310;21.876;2023-03-01T16:59:26;8.1;96.0
22676;DHT22;12521;43.310;21.876;2023-03-01T17:04:04;8.0;96.0
22676;DHT22;12521;43.310;21.876;2023-03-01T17:08:42;8.0;96.0
22676;DHT22;12521;43.310;21.876;2023-03-01T17:13:19;7.8;96.0
22676;DHT22;12521;43.310;21.876;2023-03-01T17:17:56;7.8;96.0
22676;DHT22;12521;43.310;21.876;2023-03-01T17:22:32;7.7;96.0
22676;DHT22;12521;43.310;21.876;2023-03-01T17:27:12;7.7;96.0
22676;DHT22;12521;43.310;21.876;2023-03-01T17:31:50;7.6;96.0
22676;DHT22;12521;43.310;21.876;2023-03-01T17:36:26;7.6;96.0
22676;DHT22;12521;43.310;21.876;2023-03-01T17:41:04;7.6;96.0
22676;DHT22;12521;43.310;21.876;2023-03-01T17:45:43;7.4;96.0
22676;DHT22;12521;43.310;21.876;2023-03-01T17:50:20;7.4;96.0
22676;DHT22;12521;43.310;21.876;2023-03-01T17:54:56;7.4;96.0
22676;DHT22;12521;43.310;21.876;2023-03-01T17:59:36;7.4;96.0
22676;DHT22;12521;43.310;21.876;2023-03-01T18:04:13;7.4;96.0
22676;DHT22;12521;43.310;21.876;2023-03-01T18:08:52;7.4;96.0
22676;DHT22;12521;43.310;21.876;2023-03-01T18:13:29;7.4;96.0
22676;DHT22;12521;43.310;21.876;2023-03-01T18:18:06;7.4;96.0
22676;DHT22;12521;43.310;21.876;2023-03-01T18:22:42;7.3;96.0
22676;DHT22;12521;43.310;21.876;2023-03-01T18:27:19;7.3;96.0
22676;DHT22;12521;43.310;21.876;2023-03-01T18:31:56;7.3;96.0
22676;DHT22;12521;43.310;21.876;2023-03-01T18:36:35;7.3;96.0
22676;DHT22;12521;43.310;21.876;2023-03-01T18:41:11;7.3;96.0
22676;DHT22;12521;43.310;21.876;2023-03-01T18:45:54;7.3;96.0
22676;DHT22;12521;43.310;21.876;2023-03-01T18:50:31;7.3;96.0
22676;DHT22;12521;43.310;21.876;2023-03-01T18:55:10;7.2;96.0
22676;DHT22;12521;43.310;21.876;2023-03-01T18:59:46;7.2;96.0
22676;DHT22;12521;43.310;21.876;2023-03-01T19:04:22;7.2;96.0
22676;DHT22;12521;43.310;21.876;2023-03-01T19:08:59;7.2;96.0
22676;DHT22;12521;43.310;21.876;2023-03-01T19:13:39;7.2;96.0
22676;DHT22;12521;43.310;21.876;2023-03-01T19:18:17;7.2;96.0
22676;DHT22;12521;43.310;21.876;2023-03-01T19:22:53;7.2;96.0
22676;DHT22;12521;43.310;21.876;2023-03-01T19:27:31;7.2;96.0
22676;DHT22;12521;43.310;21.876;2023-03-01T19:32:08;7.2;96.0
22676;DHT22;12521;43.310;21.876;2023-03-01T19:36:44;7.2;96.0
22676;DHT22;12521;43.310;21.876;2023-03-01T19:41:21;7.2;96.0
22676;DHT22;12521;43.310;21.876;2023-03-01T19:45:59;7.1;96.0
22676;DHT22;12521;43.310;21.876;2023-03-01T19:50:37;7.1;96.0
22676;DHT22;12521;43.310;21.876;2023-03-01T19:55:14;7.0;96.0
22676;DHT22;12521;43.310;21.876;2023-03-01T19:59:50;7.0;96.0
22676;DHT22;12521;43.310;21.876;2023-03-01T20:04:27;7.0;96.0
22676;DHT22;12521;43.310;21.876;2023-03-01T20:09:07;7.0;96.0
22676;DHT22;12521;43.310;21.876;2023-03-01T20:13:45;7.0;96.0
22676;DHT22;12521;43.310;21.876;2023-03-01T20:18:22;7.0;96.0
22676;DHT22;12521;43.310;21.876;2023-03-01T20:22:58;6.9;96.0
22676;DHT22;12521;43.310;21.876;2023-03-01T20:27:35;6.9;96.0
22676;DHT22;12521;43.310;21.876;2023-03-01T20:32:12;6.8;96.0
22676;DHT22;12521;43.310;21.876;2023-03-01T20:36:48;6.8;96.0
22676;DHT22;12521;43.310;21.876;2023-03-01T20:41:25;6.8;96.0
22676;DHT22;12521;43.310;21.876;2023-03-01T20:46:04;6.8;96.0
22676;DHT22;12521;43.310;21.876;2023-03-01T20:50:44;6.8;96.0
22676;DHT22;12521;43.310;21.876;2023-03-01T20:55:21;6.8;96.0
22676;DHT22;12521;43.310;21.876;2023-03-01T20:59:58;6.8;96.0
22676;DHT22;12521;43.310;21.876;2023-03-01T21:04:34;6.8;96.0
22676;DHT22;12521;43.310;21.876;2023-03-01T21:09:11;6.8;96.0
22676;DHT22;12521;43.310;21.876;2023-03-01T21:13:48;6.8;96.0
22676;DHT22;12521;43.310;21.876;2023-03-01T21:18:27;6.8;96.0
22676;DHT22;12521;43.310;21.876;2023-03-01T21:23:07;6.9;96.0
22676;DHT22;12521;43.310;21.876;2023-03-01T21:27:43;6.9;96.0
22676;DHT22;12521;43.310;21.876;2023-03-01T21:32:20;7.0;96.0
22676;DHT22;12521;43.310;21.876;2023-03-01T21:36:56;7.0;96.0
22676;DHT22;12521;43.310;21.876;2023-03-01T21:41:36;7.0;96.0
22676;DHT22;12521;43.310;21.876;2023-03-01T21:46:20;7.0;96.0
22676;DHT22;12521;43.310;21.876;2023-03-01T21:51:02;7.0;96.0
22676;DHT22;12521;43.310;21.876;2023-03-01T21:55:48;7.0;96.0
22676;DHT22;12521;43.310;21.876;2023-03-01T22:00:25;7.0;96.0
22676;DHT22;12521;43.310;21.876;2023-03-01T22:05:02;7.1;96.0
22676;DHT22;12521;43.310;21.876;2023-03-01T22:09:40;7.1;96.0
22676;DHT22;12521;43.310;21.876;2023-03-01T22:14:19;7.1;96.0
22676;DHT22;12521;43.310;21.876;2023-03-01T22:18:58;7.1;96.0
22676;DHT22;12521;43.310;21.876;2023-03-01T22:23:39;7.1;96.0
22676;DHT22;12521;43.310;21.876;2023-03-01T22:28:18;7.1;96.0
22676;DHT22;12521;43.310;21.876;2023-03-01T22:32:54;7.1;96.0
22676;DHT22;12521;43.310;21.876;2023-03-01T22:37:31;7.1;96.0
22676;DHT22;12521;43.310;21.876;2023-03-01T22:42:08;7.1;96.0
22676;DHT22;12521;43.310;21.876;2023-03-01T22:46:46;7.1;96.0
22676;DHT22;12521;43.310;21.876;2023-03-01T22:51:32;7.1;96.0
22676;DHT22;12521;43.310;21.876;2023-03-01T22:56:17;7.2;96.0
22676;DHT22;12521;43.310;21.876;2023-03-01T23:00:57;7.2;96.0
22676;DHT22;12521;43.310;21.876;2023-03-01T23:05:34;7.2;96.0
22676;DHT22;12521;43.310;21.876;2023-03-01T23:10:11;7.2;96.0
22676;DHT22;12521;43.310;21.876;2023-03-01T23:14:49;7.2;96.0
22676;DHT22;12521;43.310;21.876;2023-03-01T23:19:27;7.2;96.0
22676;DHT22;12521;43.310;21.876;2023-03-01T23:24:06;7.3;96.0
22676;DHT22;12521;43.310;21.876;2023-03-01T23:28:44;7.3;96.0
22676;DHT22;12521;43.310;21.876;2023-03-01T23:33:21;7.3;96.0
22676;DHT22;12521;43.310;21.876;2023-03-01T23:37:58;7.3;96.0
22676;DHT22;12521;43.310;21.876;2023-03-01T23:42:35;7.3;96.0
22676;DHT22;12521;43.310;21.876;2023-03-01T23:47:12;7.3;96.0
22676;DHT22;12521;43.310;21.876;2023-03-01T23:51:49;7.3;96.0
22676;DHT22;12521;43.310;21.876;2023-03-01T23:56:33;7.4;96.0
